sensor_id;sensor_type;location;lat;lon;timestamp;pressure;altitude;pressure_sealevel;temperature;humidity
9091;BME280;4581;42.416;25.598;2023-12-29T00:00:48;98955.91;;;5.06;nan
9091;BME280;4581;42.416;25.598;2023-12-29T00:03:15;98954.56;;;5.12;nan
9091;BME280;4581;42.416;25.598;2023-12-29T00:05:42;98943.56;;;5.05;nan
9091;BME280;4581;42.416;25.598;2023-12-29T00:08:09;98954.09;;;5.07;nan
9091;BME280;4581;42.416;25.598;2023-12-29T00:10:35;98954.81;;;5.09;nan
9091;BME280;4581;42.416;25.598;2023-12-29T00:13:02;98953.50;;;5.03;nan
9091;BME280;4581;42.416;25.598;2023-12-29T00:15:29;98952.38;;;5.06;nan
9091;BME280;4581;42.416;25.598;2023-12-29T00:17:56;98949.88;;;5.04;nan
9091;BME280;4581;42.416;25.598;2023-12-29T00:20:23;98943.69;;;5.04;nan
9091;BME280;4581;42.416;25.598;2023-12-29T00:22:59;98951.88;;;5.12;nan
9091;BME280;4581;42.416;25.598;2023-12-29T00:25:25;98958.28;;;5.00;nan
9091;BME280;4581;42.416;25.598;2023-12-29T00:27:52;98950.38;;;4.98;nan
9091;BME280;4581;42.416;25.598;2023-12-29T00:30:19;98951.69;;;5.04;nan
9091;BME280;4581;42.416;25.598;2023-12-29T00:32:47;98955.13;;;4.95;nan
9091;BME280;4581;42.416;25.598;2023-12-29T00:35:13;98950.06;;;4.92;nan
9091;BME280;4581;42.416;25.598;2023-12-29T00:37:40;98947.69;;;4.98;nan
9091;BME280;4581;42.416;25.598;2023-12-29T00:40:07;98946.84;;;4.98;nan
9091;BME280;4581;42.416;25.598;2023-12-29T00:42:36;98943.28;;;4.88;nan
9091;BME280;4581;42.416;25.598;2023-12-29T00:45:03;98950.53;;;4.97;nan
9091;BME280;4581;42.416;25.598;2023-12-29T00:47:30;98953.44;;;4.94;nan
9091;BME280;4581;42.416;25.598;2023-12-29T00:49:57;98936.78;;;4.81;nan
9091;BME280;4581;42.416;25.598;2023-12-29T00:52:24;98939.44;;;4.81;nan
9091;BME280;4581;42.416;25.598;2023-12-29T00:54:50;98944.44;;;4.74;nan
9091;BME280;4581;42.416;25.598;2023-12-29T00:57:17;98941.16;;;4.70;nan
9091;BME280;4581;42.416;25.598;2023-12-29T00:59:46;98942.03;;;4.71;nan
9091;BME280;4581;42.416;25.598;2023-12-29T01:02:13;98941.75;;;4.74;nan
9091;BME280;4581;42.416;25.598;2023-12-29T01:04:40;98934.34;;;4.78;nan
9091;BME280;4581;42.416;25.598;2023-12-29T01:07:07;98939.69;;;4.78;nan
9091;BME280;4581;42.416;25.598;2023-12-29T01:09:38;98928.78;;;4.69;nan
9091;BME280;4581;42.416;25.598;2023-12-29T01:12:06;98933.44;;;4.67;nan
9091;BME280;4581;42.416;25.598;2023-12-29T01:14:33;98936.56;;;4.72;nan
9091;BME280;4581;42.416;25.598;2023-12-29T01:17:00;98928.09;;;4.67;nan
9091;BME280;4581;42.416;25.598;2023-12-29T01:19:27;98924.06;;;4.73;nan
9091;BME280;4581;42.416;25.598;2023-12-29T01:21:54;98922.94;;;4.76;nan
9091;BME280;4581;42.416;25.598;2023-12-29T01:24:20;98914.81;;;4.77;nan
9091;BME280;4581;42.416;25.598;2023-12-29T01:26:56;98917.88;;;4.72;nan
9091;BME280;4581;42.416;25.598;2023-12-29T01:29:22;98917.53;;;4.66;nan
9091;BME280;4581;42.416;25.598;2023-12-29T01:31:49;98911.28;;;4.56;nan
9091;BME280;4581;42.416;25.598;2023-12-29T01:34:16;98917.66;;;4.64;nan
9091;BME280;4581;42.416;25.598;2023-12-29T01:36:43;98908.66;;;4.65;nan
9091;BME280;4581;42.416;25.598;2023-12-29T01:39:09;98912.72;;;4.60;nan
9091;BME280;4581;42.416;25.598;2023-12-29T01:41:36;98904.81;;;4.58;nan
9091;BME280;4581;42.416;25.598;2023-12-29T01:44:14;98907.75;;;4.55;nan
9091;BME280;4581;42.416;25.598;2023-12-29T01:46:43;98893.56;;;4.55;nan
9091;BME280;4581;42.416;25.598;2023-12-29T01:49:17;98896.50;;;4.52;nan
9091;BME280;4581;42.416;25.598;2023-12-29T01:51:51;98895.75;;;4.50;nan
9091;BME280;4581;42.416;25.598;2023-12-29T01:54:20;98892.38;;;4.48;nan
9091;BME280;4581;42.416;25.598;2023-12-29T01:56:49;98891.78;;;4.44;nan
9091;BME280;4581;42.416;25.598;2023-12-29T01:59:17;98894.25;;;4.36;nan
9091;BME280;4581;42.416;25.598;2023-12-29T02:01:50;98881.63;;;4.38;nan
9091;BME280;4581;42.416;25.598;2023-12-29T02:04:18;98881.63;;;4.38;nan
9091;BME280;4581;42.416;25.598;2023-12-29T02:06:45;98868.03;;;4.41;nan
9091;BME280;4581;42.416;25.598;2023-12-29T02:09:13;98869.50;;;4.34;nan
9091;BME280;4581;42.416;25.598;2023-12-29T02:11:40;98867.56;;;4.36;nan
9091;BME280;4581;42.416;25.598;2023-12-29T02:14:07;98875.47;;;4.27;nan
9091;BME280;4581;42.416;25.598;2023-12-29T02:16:43;98862.72;;;4.30;nan
9091;BME280;4581;42.416;25.598;2023-12-29T02:19:37;98865.88;;;4.35;nan
9091;BME280;4581;42.416;25.598;2023-12-29T02:22:06;98864.81;;;4.27;nan
9091;BME280;4581;42.416;25.598;2023-12-29T02:24:34;98864.22;;;4.23;nan
9091;BME280;4581;42.416;25.598;2023-12-29T02:27:12;98859.84;;;4.22;nan
9091;BME280;4581;42.416;25.598;2023-12-29T02:32:42;98858.59;;;4.37;nan
9091;BME280;4581;42.416;25.598;2023-12-29T02:35:13;98856.22;;;4.23;nan
9091;BME280;4581;42.416;25.598;2023-12-29T02:37:41;98855.03;;;4.16;nan
9091;BME280;4581;42.416;25.598;2023-12-29T02:40:08;98856.47;;;4.20;nan
9091;BME280;4581;42.416;25.598;2023-12-29T02:42:36;98857.91;;;4.24;nan
9091;BME280;4581;42.416;25.598;2023-12-29T02:45:06;98851.19;;;4.30;nan
9091;BME280;4581;42.416;25.598;2023-12-29T02:47:33;98855.94;;;4.26;nan
9091;BME280;4581;42.416;25.598;2023-12-29T02:50:00;98854.44;;;4.12;nan
9091;BME280;4581;42.416;25.598;2023-12-29T02:52:27;98857.06;;;4.23;nan
9091;BME280;4581;42.416;25.598;2023-12-29T02:54:53;98848.72;;;4.17;nan
9091;BME280;4581;42.416;25.598;2023-12-29T02:57:20;98849.13;;;4.12;nan
9091;BME280;4581;42.416;25.598;2023-12-29T02:59:47;98852.47;;;4.14;nan
9091;BME280;4581;42.416;25.598;2023-12-29T03:02:13;98844.75;;;4.11;nan
9091;BME280;4581;42.416;25.598;2023-12-29T03:04:40;98845.72;;;4.10;nan
9091;BME280;4581;42.416;25.598;2023-12-29T03:07:07;98849.59;;;4.06;nan
9091;BME280;4581;42.416;25.598;2023-12-29T03:09:34;98851.19;;;4.09;nan
9091;BME280;4581;42.416;25.598;2023-12-29T03:12:01;98846.81;;;4.08;nan
9091;BME280;4581;42.416;25.598;2023-12-29T03:14:28;98845.66;;;4.01;nan
9091;BME280;4581;42.416;25.598;2023-12-29T03:16:54;98835.69;;;4.03;nan
9091;BME280;4581;42.416;25.598;2023-12-29T03:19:21;98845.13;;;4.07;nan
9091;BME280;4581;42.416;25.598;2023-12-29T03:21:48;98842.56;;;4.05;nan
9091;BME280;4581;42.416;25.598;2023-12-29T03:24:15;98831.53;;;4.10;nan
9091;BME280;4581;42.416;25.598;2023-12-29T03:26:42;98840.38;;;4.10;nan
9091;BME280;4581;42.416;25.598;2023-12-29T03:29:10;98841.88;;;4.03;nan
9091;BME280;4581;42.416;25.598;2023-12-29T03:31:37;98834.72;;;4.04;nan
9091;BME280;4581;42.416;25.598;2023-12-29T03:34:05;98836.66;;;4.02;nan
9091;BME280;4581;42.416;25.598;2023-12-29T03:36:33;98838.47;;;4.01;nan
9091;BME280;4581;42.416;25.598;2023-12-29T03:39:00;98836.53;;;4.03;nan
9091;BME280;4581;42.416;25.598;2023-12-29T03:41:26;98839.09;;;4.05;nan
9091;BME280;4581;42.416;25.598;2023-12-29T03:43:53;98841.88;;;4.03;nan
9091;BME280;4581;42.416;25.598;2023-12-29T03:46:21;98841.91;;;3.92;nan
9091;BME280;4581;42.416;25.598;2023-12-29T03:48:48;98838.25;;;3.93;nan
9091;BME280;4581;42.416;25.598;2023-12-29T03:51:15;98845.53;;;3.91;nan
9091;BME280;4581;42.416;25.598;2023-12-29T03:53:43;98829.53;;;3.91;nan
9091;BME280;4581;42.416;25.598;2023-12-29T03:56:14;98838.13;;;3.95;nan
9091;BME280;4581;42.416;25.598;2023-12-29T03:58:43;98831.25;;;3.92;nan
9091;BME280;4581;42.416;25.598;2023-12-29T04:01:14;98822.88;;;3.86;nan
9091;BME280;4581;42.416;25.598;2023-12-29T04:03:42;98828.31;;;3.95;nan
9091;BME280;4581;42.416;25.598;2023-12-29T04:06:09;98824.31;;;3.90;nan
9091;BME280;4581;42.416;25.598;2023-12-29T04:08:37;98818.13;;;3.89;nan
9091;BME280;4581;42.416;25.598;2023-12-29T04:11:04;98824.31;;;3.90;nan
9091;BME280;4581;42.416;25.598;2023-12-29T04:13:31;98814.66;;;3.89;nan
9091;BME280;4581;42.416;25.598;2023-12-29T04:15:58;98820.75;;;3.80;nan
9091;BME280;4581;42.416;25.598;2023-12-29T04:18:25;98818.06;;;3.80;nan
9091;BME280;4581;42.416;25.598;2023-12-29T04:20:51;98817.09;;;3.81;nan
9091;BME280;4581;42.416;25.598;2023-12-29T04:23:18;98815.88;;;3.73;nan
9091;BME280;4581;42.416;25.598;2023-12-29T04:25:45;98822.69;;;3.66;nan
9091;BME280;4581;42.416;25.598;2023-12-29T04:28:12;98830.44;;;3.69;nan
9091;BME280;4581;42.416;25.598;2023-12-29T04:30:39;98830.84;;;3.65;nan
9091;BME280;4581;42.416;25.598;2023-12-29T04:33:06;98831.22;;;3.60;nan
9091;BME280;4581;42.416;25.598;2023-12-29T04:35:33;98822.47;;;3.58;nan
9091;BME280;4581;42.416;25.598;2023-12-29T04:37:59;98825.88;;;3.60;nan
9091;BME280;4581;42.416;25.598;2023-12-29T04:40:26;98827.81;;;3.58;nan
9091;BME280;4581;42.416;25.598;2023-12-29T04:42:53;98828.31;;;3.52;nan
9091;BME280;4581;42.416;25.598;2023-12-29T04:45:20;98815.00;;;3.52;nan
9091;BME280;4581;42.416;25.598;2023-12-29T04:47:47;98815.22;;;3.60;nan
9091;BME280;4581;42.416;25.598;2023-12-29T04:50:14;98824.19;;;3.59;nan
9091;BME280;4581;42.416;25.598;2023-12-29T04:52:40;98818.03;;;3.48;nan
9091;BME280;4581;42.416;25.598;2023-12-29T04:55:07;98811.59;;;3.50;nan
9091;BME280;4581;42.416;25.598;2023-12-29T04:57:35;98817.66;;;3.52;nan
9091;BME280;4581;42.416;25.598;2023-12-29T05:00:02;98815.38;;;3.48;nan
9091;BME280;4581;42.416;25.598;2023-12-29T05:02:29;98826.13;;;3.46;nan
9091;BME280;4581;42.416;25.598;2023-12-29T05:04:56;98818.88;;;3.48;nan
9091;BME280;4581;42.416;25.598;2023-12-29T05:07:23;98816.91;;;3.50;nan
9091;BME280;4581;42.416;25.598;2023-12-29T05:09:50;98816.31;;;3.47;nan
9091;BME280;4581;42.416;25.598;2023-12-29T05:12:17;98815.38;;;3.48;nan
9091;BME280;4581;42.416;25.598;2023-12-29T05:14:44;98820.31;;;3.41;nan
9091;BME280;4581;42.416;25.598;2023-12-29T05:17:11;98830.16;;;3.41;nan
9091;BME280;4581;42.416;25.598;2023-12-29T05:19:37;98832.81;;;3.41;nan
9091;BME280;4581;42.416;25.598;2023-12-29T05:22:04;98823.13;;;3.40;nan
9091;BME280;4581;42.416;25.598;2023-12-29T05:24:31;98817.19;;;3.47;nan
9091;BME280;4581;42.416;25.598;2023-12-29T05:26:58;98825.66;;;3.41;nan
9091;BME280;4581;42.416;25.598;2023-12-29T05:29:25;98834.97;;;3.47;nan
9091;BME280;4581;42.416;25.598;2023-12-29T05:31:52;98834.75;;;3.39;nan
9091;BME280;4581;42.416;25.598;2023-12-29T05:34:19;98835.72;;;3.38;nan
9091;BME280;4581;42.416;25.598;2023-12-29T05:36:46;98839.22;;;3.38;nan
9091;BME280;4581;42.416;25.598;2023-12-29T05:39:16;98841.81;;;3.28;nan
9091;BME280;4581;42.416;25.598;2023-12-29T05:41:42;98845.19;;;3.30;nan
9091;BME280;4581;42.416;25.598;2023-12-29T05:44:09;98841.28;;;3.35;nan
9091;BME280;4581;42.416;25.598;2023-12-29T05:46:36;98834.16;;;3.24;nan
9091;BME280;4581;42.416;25.598;2023-12-29T05:49:03;98832.72;;;3.31;nan
9091;BME280;4581;42.416;25.598;2023-12-29T05:51:30;98840.47;;;3.23;nan
9091;BME280;4581;42.416;25.598;2023-12-29T05:53:56;98837.53;;;3.26;nan
9091;BME280;4581;42.416;25.598;2023-12-29T05:56:23;98836.34;;;3.19;nan
9091;BME280;4581;42.416;25.598;2023-12-29T05:58:51;98832.22;;;3.15;nan
9091;BME280;4581;42.416;25.598;2023-12-29T06:01:19;98833.56;;;3.20;nan
9091;BME280;4581;42.416;25.598;2023-12-29T06:03:47;98832.22;;;3.15;nan
9091;BME280;4581;42.416;25.598;2023-12-29T06:06:13;98835.84;;;3.25;nan
9091;BME280;4581;42.416;25.598;2023-12-29T06:08:40;98832.72;;;3.20;nan
9091;BME280;4581;42.416;25.598;2023-12-29T06:11:07;98819.63;;;3.28;nan
9091;BME280;4581;42.416;25.598;2023-12-29T06:13:34;98835.84;;;3.36;nan
9091;BME280;4581;42.416;25.598;2023-12-29T06:16:01;98829.91;;;3.44;nan
9091;BME280;4581;42.416;25.598;2023-12-29T06:18:27;98827.31;;;3.53;nan
9091;BME280;4581;42.416;25.598;2023-12-29T06:20:54;98834.84;;;3.59;nan
9091;BME280;4581;42.416;25.598;2023-12-29T06:23:21;98829.25;;;3.62;nan
9091;BME280;4581;42.416;25.598;2023-12-29T06:25:48;98831.22;;;3.60;nan
9091;BME280;4581;42.416;25.598;2023-12-29T06:28:15;98838.44;;;3.69;nan
9091;BME280;4581;42.416;25.598;2023-12-29T06:30:42;98841.22;;;3.79;nan
9091;BME280;4581;42.416;25.598;2023-12-29T06:33:09;98833.59;;;3.74;nan
9091;BME280;4581;42.416;25.598;2023-12-29T06:35:36;98843.03;;;3.78;nan
9091;BME280;4581;42.416;25.598;2023-12-29T06:38:05;98839.25;;;3.92;nan
9091;BME280;4581;42.416;25.598;2023-12-29T06:40:32;98830.38;;;3.92;nan
9091;BME280;4581;42.416;25.598;2023-12-29T06:42:59;98829.44;;;3.93;nan
9091;BME280;4581;42.416;25.598;2023-12-29T06:45:25;98835.47;;;3.95;nan
9091;BME280;4581;42.416;25.598;2023-12-29T06:47:52;98838.81;;;4.08;nan
9091;BME280;4581;42.416;25.598;2023-12-29T06:50:19;98837.91;;;4.18;nan
9091;BME280;4581;42.416;25.598;2023-12-29T06:52:46;98830.47;;;4.33;nan
9091;BME280;4581;42.416;25.598;2023-12-29T06:55:12;98843.75;;;4.44;nan
9091;BME280;4581;42.416;25.598;2023-12-29T06:57:39;98841.47;;;4.60;nan
9091;BME280;4581;42.416;25.598;2023-12-29T07:00:06;98843.69;;;4.76;nan
9091;BME280;4581;42.416;25.598;2023-12-29T07:02:33;98837.50;;;4.76;nan
9091;BME280;4581;42.416;25.598;2023-12-29T07:05:00;98838.81;;;4.81;nan
9091;BME280;4581;42.416;25.598;2023-12-29T07:07:27;98841.91;;;4.86;nan
9091;BME280;4581;42.416;25.598;2023-12-29T07:09:54;98837.59;;;4.95;nan
9091;BME280;4581;42.416;25.598;2023-12-29T07:12:21;98841.22;;;4.94;nan
9091;BME280;4581;42.416;25.598;2023-12-29T07:14:48;98839.88;;;4.99;nan
9091;BME280;4581;42.416;25.598;2023-12-29T07:17:14;98840.16;;;5.06;nan
9091;BME280;4581;42.416;25.598;2023-12-29T07:19:41;98838.13;;;5.19;nan
9091;BME280;4581;42.416;25.598;2023-12-29T07:22:08;98841.03;;;5.06;nan
9091;BME280;4581;42.416;25.598;2023-12-29T07:24:35;98838.84;;;5.21;nan
9091;BME280;4581;42.416;25.598;2023-12-29T07:27:03;98831.81;;;5.20;nan
9091;BME280;4581;42.416;25.598;2023-12-29T07:29:30;98835.16;;;5.52;nan
9091;BME280;4581;42.416;25.598;2023-12-29T07:31:57;98831.25;;;5.66;nan
9091;BME280;4581;42.416;25.598;2023-12-29T07:34:25;98825.09;;;5.85;nan
9091;BME280;4581;42.416;25.598;2023-12-29T07:36:53;98820.38;;;6.07;nan
9091;BME280;4581;42.416;25.598;2023-12-29T07:39:20;98836.72;;;6.24;nan
9091;BME280;4581;42.416;25.598;2023-12-29T07:41:47;98845.88;;;6.40;nan
9091;BME280;4581;42.416;25.598;2023-12-29T07:44:15;98845.56;;;6.43;nan
9091;BME280;4581;42.416;25.598;2023-12-29T07:46:42;98845.28;;;6.56;nan
9091;BME280;4581;42.416;25.598;2023-12-29T07:49:09;98846.09;;;6.76;nan
9091;BME280;4581;42.416;25.598;2023-12-29T07:51:44;98851.59;;;6.93;nan
9091;BME280;4581;42.416;25.598;2023-12-29T07:54:12;98867.84;;;6.73;nan
9091;BME280;4581;42.416;25.598;2023-12-29T07:56:39;98867.28;;;7.25;nan
9091;BME280;4581;42.416;25.598;2023-12-29T07:59:05;98863.59;;;7.63;nan
9091;BME280;4581;42.416;25.598;2023-12-29T08:01:32;98871.41;;;7.84;nan
9091;BME280;4581;42.416;25.598;2023-12-29T08:03:59;98859.47;;;8.41;nan
9091;BME280;4581;42.416;25.598;2023-12-29T08:06:26;98879.06;;;8.24;nan
9091;BME280;4581;42.416;25.598;2023-12-29T08:08:54;98879.91;;;8.24;nan
9091;BME280;4581;42.416;25.598;2023-12-29T08:11:21;98875.66;;;8.04;nan
9091;BME280;4581;42.416;25.598;2023-12-29T08:13:48;98876.81;;;8.19;nan
9091;BME280;4581;42.416;25.598;2023-12-29T08:16:16;98874.81;;;8.66;nan
9091;BME280;4581;42.416;25.598;2023-12-29T08:18:49;98882.63;;;8.77;nan
9091;BME280;4581;42.416;25.598;2023-12-29T08:21:19;98873.31;;;8.72;nan
9091;BME280;4581;42.416;25.598;2023-12-29T08:23:47;98882.56;;;8.95;nan
9091;BME280;4581;42.416;25.598;2023-12-29T08:26:14;98870.38;;;9.60;nan
9091;BME280;4581;42.416;25.598;2023-12-29T08:28:45;98887.56;;;10.01;nan
9091;BME280;4581;42.416;25.598;2023-12-29T08:31:12;98895.25;;;9.96;nan
9091;BME280;4581;42.416;25.598;2023-12-29T08:33:39;98890.31;;;10.17;nan
9091;BME280;4581;42.416;25.598;2023-12-29T08:36:06;98893.53;;;10.21;nan
9091;BME280;4581;42.416;25.598;2023-12-29T08:38:33;98882.94;;;10.36;nan
9091;BME280;4581;42.416;25.598;2023-12-29T08:41:00;98895.75;;;10.25;nan
9091;BME280;4581;42.416;25.598;2023-12-29T08:43:26;98887.00;;;10.48;nan
9091;BME280;4581;42.416;25.598;2023-12-29T08:45:53;98890.25;;;10.84;nan
9091;BME280;4581;42.416;25.598;2023-12-29T08:48:21;98890.44;;;11.14;nan
9091;BME280;4581;42.416;25.598;2023-12-29T08:50:49;98893.25;;;11.37;nan
9091;BME280;4581;42.416;25.598;2023-12-29T08:53:16;98889.00;;;11.59;nan
9091;BME280;4581;42.416;25.598;2023-12-29T08:55:44;98897.16;;;11.35;nan
9091;BME280;4581;42.416;25.598;2023-12-29T08:58:12;98897.66;;;11.30;nan
9091;BME280;4581;42.416;25.598;2023-12-29T09:00:38;98891.75;;;11.35;nan
9091;BME280;4581;42.416;25.598;2023-12-29T09:03:05;98897.16;;;11.35;nan
9091;BME280;4581;42.416;25.598;2023-12-29T09:05:32;98888.31;;;11.49;nan
9091;BME280;4581;42.416;25.598;2023-12-29T09:07:59;98890.91;;;11.18;nan
9091;BME280;4581;42.416;25.598;2023-12-29T09:10:26;98893.78;;;11.16;nan
9091;BME280;4581;42.416;25.598;2023-12-29T09:12:53;98886.53;;;11.09;nan
9091;BME280;4581;42.416;25.598;2023-12-29T09:15:20;98872.63;;;11.52;nan
9091;BME280;4581;42.416;25.598;2023-12-29T09:17:46;98876.00;;;11.54;nan
9091;BME280;4581;42.416;25.598;2023-12-29T09:20:13;98869.38;;;11.65;nan
9091;BME280;4581;42.416;25.598;2023-12-29T09:22:41;98868.69;;;12.18;nan
9091;BME280;4581;42.416;25.598;2023-12-29T09:25:08;98870.28;;;12.81;nan
9091;BME280;4581;42.416;25.598;2023-12-29T09:27:35;98881.91;;;13.04;nan
9091;BME280;4581;42.416;25.598;2023-12-29T09:30:03;98881.84;;;13.64;nan
9091;BME280;4581;42.416;25.598;2023-12-29T09:32:30;98878.03;;;14.02;nan
9091;BME280;4581;42.416;25.598;2023-12-29T09:34:57;98877.31;;;14.44;nan
9091;BME280;4581;42.416;25.598;2023-12-29T09:37:24;98866.63;;;15.28;nan
9091;BME280;4581;42.416;25.598;2023-12-29T09:39:50;98868.50;;;14.99;nan
9091;BME280;4581;42.416;25.598;2023-12-29T09:42:21;98861.00;;;14.80;nan
9091;BME280;4581;42.416;25.598;2023-12-29T09:44:50;98855.56;;;14.80;nan
9091;BME280;4581;42.416;25.598;2023-12-29T09:47:28;98865.69;;;14.93;nan
9091;BME280;4581;42.416;25.598;2023-12-29T09:49:57;98856.09;;;14.48;nan
9091;BME280;4581;42.416;25.598;2023-12-29T09:52:25;98861.94;;;14.94;nan
9091;BME280;4581;42.416;25.598;2023-12-29T09:54:52;98860.00;;;15.09;nan
9091;BME280;4581;42.416;25.598;2023-12-29T09:57:20;98851.06;;;15.43;nan
9091;BME280;4581;42.416;25.598;2023-12-29T09:59:49;98853.28;;;15.88;nan
9091;BME280;4581;42.416;25.598;2023-12-29T10:02:20;98850.78;;;16.54;nan
9091;BME280;4581;42.416;25.598;2023-12-29T10:04:47;98845.03;;;16.77;nan
9091;BME280;4581;42.416;25.598;2023-12-29T10:07:37;98837.00;;;17.81;nan
9091;BME280;4581;42.416;25.598;2023-12-29T10:10:06;98840.50;;;18.01;nan
9091;BME280;4581;42.416;25.598;2023-12-29T10:12:34;98838.81;;;18.57;nan
9091;BME280;4581;42.416;25.598;2023-12-29T10:15:12;98825.50;;;19.24;nan
9091;BME280;4581;42.416;25.598;2023-12-29T10:17:56;98826.50;;;19.29;nan
9091;BME280;4581;42.416;25.598;2023-12-29T10:23:32;98810.91;;;19.54;nan
9091;BME280;4581;42.416;25.598;2023-12-29T10:26:00;98807.50;;;19.34;nan
9091;BME280;4581;42.416;25.598;2023-12-29T10:28:26;98815.03;;;19.14;nan
9091;BME280;4581;42.416;25.598;2023-12-29T10:30:54;98815.59;;;19.23;nan
9091;BME280;4581;42.416;25.598;2023-12-29T10:33:21;98800.91;;;19.67;nan
9091;BME280;4581;42.416;25.598;2023-12-29T10:36:02;98804.84;;;20.25;nan
9091;BME280;4581;42.416;25.598;2023-12-29T10:38:31;98794.19;;;20.35;nan
9091;BME280;4581;42.416;25.598;2023-12-29T10:41:11;98792.66;;;20.69;nan
9091;BME280;4581;42.416;25.598;2023-12-29T10:43:40;98787.75;;;21.47;nan
9091;BME280;4581;42.416;25.598;2023-12-29T10:46:09;98782.25;;;21.94;nan
9091;BME280;4581;42.416;25.598;2023-12-29T10:48:37;98791.06;;;22.36;nan
9091;BME280;4581;42.416;25.598;2023-12-29T10:51:05;98786.91;;;21.93;nan
9091;BME280;4581;42.416;25.598;2023-12-29T10:53:33;98785.16;;;22.16;nan
9091;BME280;4581;42.416;25.598;2023-12-29T10:56:02;98786.00;;;22.16;nan
9091;BME280;4581;42.416;25.598;2023-12-29T10:58:29;98787.38;;;22.70;nan
9091;BME280;4581;42.416;25.598;2023-12-29T11:00:56;98792.66;;;23.05;nan
9091;BME280;4581;42.416;25.598;2023-12-29T11:03:24;98780.50;;;21.30;nan
9091;BME280;4581;42.416;25.598;2023-12-29T11:05:58;98767.09;;;21.80;nan
9091;BME280;4581;42.416;25.598;2023-12-29T11:08:26;98762.44;;;20.99;nan
9091;BME280;4581;42.416;25.598;2023-12-29T11:10:54;98756.38;;;22.75;nan
9091;BME280;4581;42.416;25.598;2023-12-29T11:13:21;98762.72;;;23.25;nan
9091;BME280;4581;42.416;25.598;2023-12-29T11:15:48;98764.44;;;23.65;nan
9091;BME280;4581;42.416;25.598;2023-12-29T11:18:16;98768.19;;;24.41;nan
9091;BME280;4581;42.416;25.598;2023-12-29T11:20:45;98764.44;;;25.05;nan
9091;BME280;4581;42.416;25.598;2023-12-29T11:23:13;98759.03;;;25.21;nan
9091;BME280;4581;42.416;25.598;2023-12-29T11:25:40;98757.59;;;26.69;nan
9091;BME280;4581;42.416;25.598;2023-12-29T11:28:10;98756.53;;;27.31;nan
9091;BME280;4581;42.416;25.598;2023-12-29T11:30:38;98757.94;;;26.98;nan
9091;BME280;4581;42.416;25.598;2023-12-29T11:33:15;98759.00;;;28.47;nan
9091;BME280;4581;42.416;25.598;2023-12-29T11:36:10;98757.28;;;29.00;nan
9091;BME280;4581;42.416;25.598;2023-12-29T11:39:01;98755.28;;;28.62;nan
9091;BME280;4581;42.416;25.598;2023-12-29T11:41:37;98749.47;;;28.04;nan
9091;BME280;4581;42.416;25.598;2023-12-29T11:44:06;98748.50;;;26.89;nan
9091;BME280;4581;42.416;25.598;2023-12-29T11:49:04;98744.63;;;26.90;nan
9091;BME280;4581;42.416;25.598;2023-12-29T11:51:33;98743.75;;;27.80;nan
9091;BME280;4581;42.416;25.598;2023-12-29T11:54:02;98750.81;;;28.66;nan
9091;BME280;4581;42.416;25.598;2023-12-29T11:56:38;98748.44;;;29.32;nan
9091;BME280;4581;42.416;25.598;2023-12-29T11:59:14;98749.75;;;29.40;nan
9091;BME280;4581;42.416;25.598;2023-12-29T12:01:41;98747.72;;;28.28;nan
9091;BME280;4581;42.416;25.598;2023-12-29T12:04:41;98741.88;;;27.35;nan
9091;BME280;4581;42.416;25.598;2023-12-29T12:12:49;98732.38;;;26.45;nan
9091;BME280;4581;42.416;25.598;2023-12-29T12:17:58;98730.69;;;26.44;nan
9091;BME280;4581;42.416;25.598;2023-12-29T12:20:26;98733.19;;;26.36;nan
9091;BME280;4581;42.416;25.598;2023-12-29T12:23:02;98731.84;;;26.59;nan
9091;BME280;4581;42.416;25.598;2023-12-29T12:25:30;98733.53;;;26.80;nan
9091;BME280;4581;42.416;25.598;2023-12-29T12:28:05;98738.25;;;27.60;nan
9091;BME280;4581;42.416;25.598;2023-12-29T12:30:33;98743.69;;;27.90;nan
9091;BME280;4581;42.416;25.598;2023-12-29T12:33:02;98731.28;;;25.79;nan
9091;BME280;4581;42.416;25.598;2023-12-29T12:35:30;98729.50;;;24.31;nan
9091;BME280;4581;42.416;25.598;2023-12-29T12:38:16;98721.19;;;23.82;nan
9091;BME280;4581;42.416;25.598;2023-12-29T12:40:50;98715.72;;;22.77;nan
9091;BME280;4581;42.416;25.598;2023-12-29T12:43:17;98709.75;;;22.52;nan
9091;BME280;4581;42.416;25.598;2023-12-29T12:45:52;98709.78;;;22.23;nan
9091;BME280;4581;42.416;25.598;2023-12-29T12:48:23;98710.56;;;22.97;nan
9091;BME280;4581;42.416;25.598;2023-12-29T12:50:50;98714.56;;;22.45;nan
9091;BME280;4581;42.416;25.598;2023-12-29T12:53:18;98716.56;;;22.04;nan
9091;BME280;4581;42.416;25.598;2023-12-29T12:58:19;98710.13;;;21.12;nan
9091;BME280;4581;42.416;25.598;2023-12-29T13:00:47;98722.09;;;21.81;nan
9091;BME280;4581;42.416;25.598;2023-12-29T13:03:17;98717.69;;;23.31;nan
9091;BME280;4581;42.416;25.598;2023-12-29T13:05:44;98722.31;;;23.64;nan
9091;BME280;4581;42.416;25.598;2023-12-29T13:08:12;98708.09;;;23.72;nan
9091;BME280;4581;42.416;25.598;2023-12-29T13:10:41;98717.13;;;23.68;nan
9091;BME280;4581;42.416;25.598;2023-12-29T13:13:10;98719.78;;;22.91;nan
9091;BME280;4581;42.416;25.598;2023-12-29T13:15:48;98731.44;;;21.68;nan
9091;BME280;4581;42.416;25.598;2023-12-29T13:18:16;98727.81;;;22.76;nan
9091;BME280;4581;42.416;25.598;2023-12-29T13:20:49;98729.16;;;23.07;nan
9091;BME280;4581;42.416;25.598;2023-12-29T13:23:18;98728.66;;;22.48;nan
9091;BME280;4581;42.416;25.598;2023-12-29T13:25:46;98723.72;;;22.05;nan
9091;BME280;4581;42.416;25.598;2023-12-29T13:28:14;98717.41;;;22.78;nan
9091;BME280;4581;42.416;25.598;2023-12-29T13:30:41;98719.66;;;22.53;nan
9091;BME280;4581;42.416;25.598;2023-12-29T13:33:18;98725.25;;;22.86;nan
9091;BME280;4581;42.416;25.598;2023-12-29T13:35:54;98727.75;;;22.59;nan
9091;BME280;4581;42.416;25.598;2023-12-29T13:38:37;98729.28;;;21.59;nan
9091;BME280;4581;42.416;25.598;2023-12-29T13:41:11;98720.34;;;19.81;nan
9091;BME280;4581;42.416;25.598;2023-12-29T13:43:40;98719.16;;;18.41;nan
9091;BME280;4581;42.416;25.598;2023-12-29T13:46:11;98717.41;;;17.07;nan
9091;BME280;4581;42.416;25.598;2023-12-29T13:48:40;98710.13;;;16.68;nan
9091;BME280;4581;42.416;25.598;2023-12-29T13:51:08;98710.44;;;16.06;nan
9091;BME280;4581;42.416;25.598;2023-12-29T13:53:35;98706.75;;;15.59;nan
9091;BME280;4581;42.416;25.598;2023-12-29T13:56:09;98713.44;;;15.29;nan
9091;BME280;4581;42.416;25.598;2023-12-29T13:58:36;98705.56;;;14.99;nan
9091;BME280;4581;42.416;25.598;2023-12-29T14:01:06;98715.59;;;14.71;nan
9091;BME280;4581;42.416;25.598;2023-12-29T14:03:50;98707.59;;;14.35;nan
9091;BME280;4581;42.416;25.598;2023-12-29T14:06:43;98707.84;;;14.04;nan